createdAt,value
2022-11-25T00:01:09.186Z,93.60
2022-11-25T00:03:42.029Z,93.50
2022-11-25T00:06:17.295Z,91.20
2022-11-25T00:08:51.849Z,89.70
2022-11-25T00:11:24.019Z,84.10
2022-11-25T00:13:57.018Z,90.60
2022-11-25T00:16:29.433Z,83.10
2022-11-25T00:19:02.055Z,91.00
2022-11-25T00:21:37.059Z,88.60
2022-11-25T00:24:10.266Z,88.40
2022-11-25T00:26:42.361Z,87.50
2022-11-25T00:29:15.323Z,81.10
2022-11-25T00:31:47.652Z,97.70
2022-11-25T00:34:20.011Z,91.40
2022-11-25T00:36:53.443Z,86.40
2022-11-25T00:39:27.167Z,85.40
2022-11-25T00:42:16.955Z,86.50
2022-11-25T00:44:49.086Z,89.50
2022-11-25T00:47:22.848Z,87.90
2022-11-25T00:49:55.588Z,84.90
2022-11-25T00:52:28.752Z,81.90
2022-11-25T00:55:03.201Z,86.80
2022-11-25T00:57:36.383Z,89.50
2022-11-25T01:00:11.852Z,103.60
2022-11-25T01:02:50.901Z,99.40
2022-11-25T01:08:37.456Z,96.80
2022-11-25T01:11:12.758Z,95.00
2022-11-25T01:13:44.929Z,85.20
2022-11-25T01:16:19.708Z,98.90
2022-11-25T01:18:52.800Z,107.50
2022-11-25T01:21:27.275Z,115.50
2022-11-25T01:24:00.231Z,100.20
2022-11-25T01:26:33.440Z,102.80
2022-11-25T01:29:07.687Z,103.10
2022-11-25T01:31:40.221Z,103.70
2022-11-25T01:34:17.406Z,113.00
2022-11-25T01:36:49.957Z,110.30
2022-11-25T01:39:28.602Z,104.60
2022-11-25T01:42:04.828Z,109.10
2022-11-25T01:44:40.439Z,105.10
2022-11-25T01:47:17.347Z,96.80
2022-11-25T01:49:55.555Z,95.80
2022-11-25T01:52:32.772Z,95.20
2022-11-25T01:55:08.280Z,99.80
2022-11-25T01:57:45.508Z,95.20
2022-11-25T02:00:20.351Z,89.80
2022-11-25T02:02:56.409Z,92.30
2022-11-25T02:05:37.106Z,92.20
2022-11-25T02:08:10.797Z,88.80
2022-11-25T02:10:44.285Z,91.70
2022-11-25T02:13:16.790Z,97.50
2022-11-25T02:15:50.407Z,95.90
2022-11-25T02:18:23.043Z,94.30
2022-11-25T02:20:55.564Z,128.10
2022-11-25T02:23:39.561Z,103.70
2022-11-25T02:26:11.903Z,112.10
2022-11-25T02:28:44.791Z,114.40
2022-11-25T02:31:22.614Z,110.70
2022-11-25T02:33:56.677Z,106.10
2022-11-25T02:36:29.034Z,105.10
2022-11-25T02:39:02.842Z,94.90
2022-11-25T02:41:42.609Z,102.20
2022-11-25T02:44:18.496Z,97.00
2022-11-25T02:46:50.730Z,94.50
2022-11-25T02:49:25.422Z,100.50
2022-11-25T02:51:59.253Z,107.10
2022-11-25T02:54:33.107Z,116.10
2022-11-25T02:57:08.354Z,115.10
2022-11-25T02:59:40.798Z,119.40
2022-11-25T03:02:13.032Z,99.30
2022-11-25T03:04:45.180Z,102.50
2022-11-25T03:07:17.350Z,112.20
2022-11-25T03:09:49.897Z,110.60
2022-11-25T03:12:22.738Z,107.40
2022-11-25T03:15:01.277Z,104.10
2022-11-25T03:17:34.259Z,93.90
2022-11-25T03:20:10.519Z,100.70
2022-11-25T03:22:43.043Z,100.30
2022-11-25T03:25:17.077Z,103.40
2022-11-25T03:27:50.175Z,100.10
2022-11-25T03:30:25.177Z,103.50
2022-11-25T03:32:59.657Z,110.40
2022-11-25T03:35:32.132Z,110.60
2022-11-25T03:38:04.307Z,115.90
2022-11-25T03:40:38.919Z,117.60
2022-11-25T03:43:11.252Z,113.80
2022-11-25T03:45:44.793Z,103.60
2022-11-25T03:48:17.802Z,107.20
2022-11-25T03:50:52.269Z,103.50
2022-11-25T03:53:24.961Z,104.60
2022-11-25T03:55:57.843Z,109.80
2022-11-25T03:58:30.419Z,97.30
2022-11-25T04:01:05.450Z,95.90
2022-11-25T04:03:37.752Z,93.10
2022-11-25T04:06:16.031Z,96.10
2022-11-25T04:08:53.222Z,90.50
2022-11-25T04:11:46.612Z,106.50
2022-11-25T04:14:18.989Z,130.80
2022-11-25T04:16:52.482Z,169.70
2022-11-25T04:19:25.340Z,159.30
2022-11-25T04:21:59.768Z,172.60
2022-11-25T04:24:33.549Z,152.90
2022-11-25T04:27:08.391Z,129.50
2022-11-25T04:29:40.702Z,115.60
2022-11-25T04:32:13.540Z,120.50
2022-11-25T04:34:45.750Z,110.70
2022-11-25T04:37:20.594Z,126.30
2022-11-25T04:39:53.749Z,126.70
2022-11-25T04:42:36.744Z,155.00
2022-11-25T04:45:23.096Z,110.00
2022-11-25T04:47:56.372Z,106.70
2022-11-25T04:50:28.651Z,103.40
2022-11-25T04:53:07.056Z,114.30
2022-11-25T04:55:39.209Z,100.60
2022-11-25T04:58:40.045Z,110.60
2022-11-25T05:01:13.336Z,90.50
2022-11-25T05:03:56.015Z,97.90
2022-11-25T05:06:30.173Z,96.40
2022-11-25T05:09:02.519Z,92.40
2022-11-25T05:11:36.153Z,89.70
2022-11-25T05:14:08.503Z,85.70
2022-11-25T05:16:40.745Z,79.70
2022-11-25T05:19:14.219Z,85.00
2022-11-25T05:21:46.694Z,73.50
2022-11-25T05:24:19.479Z,77.50
2022-11-25T05:26:53.283Z,81.10
2022-11-25T05:29:25.716Z,89.60
2022-11-25T05:31:58.692Z,87.00
2022-11-25T05:34:30.989Z,77.70
2022-11-25T05:37:04.002Z,84.30
2022-11-25T05:39:38.746Z,88.50
2022-11-25T05:42:32.192Z,88.70
2022-11-25T05:45:07.720Z,126.00
2022-11-25T05:47:40.160Z,83.20
2022-11-25T05:50:12.810Z,85.90
2022-11-25T05:52:45.523Z,81.80
2022-11-25T05:55:17.925Z,84.80
2022-11-25T05:57:51.474Z,87.30
2022-11-25T06:00:26.729Z,83.00
2022-11-25T06:02:59.304Z,84.30
2022-11-25T06:05:32.667Z,81.10
2022-11-25T06:08:05.048Z,73.90
2022-11-25T06:10:39.052Z,78.70
2022-11-25T06:13:11.644Z,73.30
2022-11-25T06:15:46.456Z,68.50
2022-11-25T06:18:22.293Z,70.10
2022-11-25T06:21:01.005Z,68.70
2022-11-25T06:23:34.625Z,70.10
2022-11-25T06:26:10.437Z,67.30
2022-11-25T06:28:42.927Z,69.40
2022-11-25T06:31:21.494Z,63.00
2022-11-25T06:34:03.109Z,67.00
2022-11-25T06:36:35.458Z,59.50
2022-11-25T06:39:07.743Z,64.90
2022-11-25T06:41:41.490Z,65.30
2022-11-25T06:44:13.669Z,64.50
2022-11-25T06:46:46.026Z,68.60
2022-11-25T06:49:18.562Z,64.90
2022-11-25T06:51:53.494Z,66.60
2022-11-25T06:54:25.790Z,61.70
2022-11-25T06:56:58.050Z,55.90
2022-11-25T06:59:32.339Z,61.50
2022-11-25T07:02:05.205Z,60.20
2022-11-25T07:04:38.569Z,56.10
2022-11-25T07:07:11.056Z,61.70
2022-11-25T07:09:43.560Z,57.60
2022-11-25T07:12:15.681Z,53.00
2022-11-25T07:14:51.363Z,57.30
2022-11-25T07:17:23.929Z,73.50
2022-11-25T07:19:56.124Z,83.10
2022-11-25T07:22:30.534Z,68.10
2022-11-25T07:25:02.770Z,75.00
2022-11-25T07:27:35.654Z,93.70
2022-11-25T07:31:09.371Z,88.90
2022-11-25T07:33:02.113Z,92.40
2022-11-25T07:35:35.102Z,91.30
2022-11-25T07:38:07.403Z,101.30
2022-11-25T07:40:39.483Z,97.20
2022-11-25T07:43:13.866Z,88.10
2022-11-25T07:45:45.934Z,101.80
2022-11-25T07:48:18.154Z,105.50
2022-11-25T07:50:50.837Z,100.50
2022-11-25T07:53:23.128Z,110.70
2022-11-25T07:55:55.346Z,99.70
2022-11-25T07:58:27.382Z,98.20
2022-11-25T08:01:02.922Z,98.70
2022-11-25T08:03:37.175Z,108.30
2022-11-25T08:06:12.471Z,96.80
2022-11-25T08:08:45.850Z,210.50
2022-11-25T08:11:20.890Z,104.10
2022-11-25T08:13:53.312Z,102.40
2022-11-25T08:16:27.855Z,125.90
2022-11-25T08:19:02.217Z,104.00
2022-11-25T08:21:34.367Z,100.30
2022-11-25T08:24:07.245Z,121.40
2022-11-25T08:26:40.911Z,97.70
2022-11-25T08:29:17.418Z,112.90
2022-11-25T08:31:49.951Z,100.60
2022-11-25T08:34:25.053Z,147.40
2022-11-25T08:36:59.622Z,96.90
2022-11-25T08:42:24.006Z,81.60
2022-11-25T08:44:57.116Z,87.80
2022-11-25T08:47:29.310Z,134.30
2022-11-25T08:50:01.803Z,78.10
2022-11-25T08:52:33.962Z,546.50
2022-11-25T08:55:07.426Z,106.60
2022-11-25T08:57:39.684Z,83.10
2022-11-25T09:00:14.542Z,87.20
2022-11-25T09:06:06.160Z,78.90
2022-11-25T09:08:39.982Z,143.20
2022-11-25T09:11:12.442Z,78.20
2022-11-25T09:13:44.799Z,74.30
2022-11-25T09:16:17.081Z,75.50
2022-11-25T09:18:55.333Z,94.80
2022-11-25T09:21:28.501Z,83.30
2022-11-25T09:24:01.241Z,95.90
2022-11-25T09:26:35.798Z,119.70
2022-11-25T09:29:13.020Z,107.60
2022-11-25T09:31:47.827Z,90.50
2022-11-25T09:34:25.817Z,112.60
2022-11-25T09:36:57.943Z,132.50
2022-11-25T09:39:32.215Z,94.30
2022-11-25T09:42:58.352Z,91.90
2022-11-25T09:45:55.324Z,121.80
2022-11-25T09:48:40.644Z,97.90
2022-11-25T09:51:22.763Z,90.20
2022-11-25T09:53:59.400Z,88.00
2022-11-25T09:56:40.134Z,75.80
2022-11-25T09:59:16.803Z,78.30
2022-11-25T10:01:53.857Z,82.70
2022-11-25T10:04:32.575Z,89.60
2022-11-25T10:07:05.691Z,94.10
2022-11-25T10:09:38.483Z,101.40
2022-11-25T10:12:20.768Z,115.20
2022-11-25T10:14:57.094Z,130.40
2022-11-25T10:17:37.580Z,149.70
2022-11-25T10:20:18.373Z,194.50
2022-11-25T10:22:53.491Z,151.40
2022-11-25T10:25:28.925Z,147.40
2022-11-25T10:28:02.911Z,162.30
2022-11-25T10:30:40.784Z,161.00
2022-11-25T10:33:24.122Z,181.90
2022-11-25T10:35:59.716Z,89.50
2022-11-25T10:38:37.299Z,98.60
2022-11-25T10:41:14.163Z,70.50
2022-11-25T10:43:47.104Z,63.40
2022-11-25T10:46:49.640Z,55.10
2022-11-25T10:49:27.584Z,62.70
2022-11-25T10:52:05.120Z,59.20
2022-11-25T10:54:37.815Z,51.70
2022-11-25T10:57:21.660Z,80.50
2022-11-25T10:59:59.818Z,80.00
2022-11-25T11:02:39.354Z,67.80
2022-11-25T11:05:24.509Z,94.70
2022-11-25T11:11:16.708Z,74.90
2022-11-25T11:13:51.703Z,81.50
2022-11-25T11:16:31.129Z,87.20
2022-11-25T11:19:04.032Z,76.60
2022-11-25T11:21:39.007Z,80.40
2022-11-25T11:24:28.523Z,87.10
2022-11-25T11:27:16.160Z,97.40
2022-11-25T11:29:48.357Z,100.70
2022-11-25T11:32:26.272Z,99.60
2022-11-25T11:35:09.127Z,96.30
2022-11-25T11:37:45.295Z,95.80
2022-11-25T11:40:43.547Z,99.30
2022-11-25T11:43:50.740Z,104.70
2022-11-25T11:46:33.096Z,95.50
2022-11-25T11:49:30.229Z,101.70
2022-11-25T11:52:12.722Z,101.20
2022-11-25T11:54:51.439Z,99.60
2022-11-25T11:57:35.595Z,101.40
2022-11-25T12:00:10.513Z,101.90
2022-11-25T12:03:01.737Z,100.60
2022-11-25T12:05:37.269Z,96.90
2022-11-25T12:08:18.246Z,97.70
2022-11-25T12:10:54.642Z,106.40
2022-11-25T12:13:35.238Z,113.70
2022-11-25T12:18:50.403Z,98.30
2022-11-25T12:21:41.880Z,102.20
2022-11-25T12:24:21.160Z,99.00
2022-11-25T12:26:59.108Z,106.00
2022-11-25T12:29:40.640Z,105.10
2022-11-25T12:32:41.447Z,104.00
2022-11-25T12:37:56.150Z,100.50
2022-11-25T12:40:34.905Z,89.00
2022-11-25T12:43:26.184Z,87.30
2022-11-25T12:46:11.307Z,96.10
2022-11-25T12:48:44.944Z,81.80
2022-11-25T12:51:42.390Z,83.60
2022-11-25T12:54:29.723Z,101.90
2022-11-25T12:57:43.147Z,90.80
2022-11-25T13:00:42.309Z,95.50
2022-11-25T13:03:41.513Z,97.50
2022-11-25T13:06:41.266Z,110.70
2022-11-25T13:09:30.478Z,121.10
2022-11-25T13:12:18.765Z,126.10
2022-11-25T13:15:18.197Z,131.10
2022-11-25T13:17:55.692Z,128.60
2022-11-25T13:20:43.866Z,125.60
2022-11-25T13:26:37.765Z,131.20
2022-11-25T13:29:59.194Z,112.60
2022-11-25T13:32:37.093Z,122.10
2022-11-25T13:35:35.821Z,128.00
2022-11-25T13:38:50.338Z,118.80
2022-11-25T13:41:34.630Z,107.20
2022-11-25T13:44:16.861Z,115.20
2022-11-25T13:46:52.699Z,119.50
2022-11-25T13:49:39.550Z,110.90
2022-11-25T13:52:32.531Z,113.80
2022-11-25T13:55:11.679Z,120.50
2022-11-25T13:57:48.544Z,122.90
2022-11-25T14:01:02.360Z,112.40
2022-11-25T14:03:57.473Z,110.30
2022-11-25T14:07:05.363Z,104.60
2022-11-25T14:09:57.393Z,108.60
2022-11-25T14:12:50.488Z,89.60
2022-11-25T14:15:43.319Z,89.20
2022-11-25T14:19:17.324Z,90.60
2022-11-25T14:21:51.740Z,93.60
2022-11-25T14:24:37.112Z,90.00
2022-11-25T14:27:18.477Z,102.70
2022-11-25T14:29:57.918Z,85.60
2022-11-25T14:32:36.880Z,92.90
2022-11-25T14:35:15.053Z,79.30
2022-11-25T14:37:51.754Z,92.30
2022-11-25T14:40:26.912Z,90.60
2022-11-25T14:43:05.395Z,79.30
2022-11-25T14:45:38.274Z,78.10
2022-11-25T14:48:18.630Z,76.50
2022-11-25T14:51:02.729Z,74.80
2022-11-25T14:53:47.912Z,91.90
2022-11-25T14:56:28.204Z,78.60
2022-11-25T14:59:01.747Z,82.60
2022-11-25T15:01:35.009Z,79.20
2022-11-25T15:04:09.333Z,74.60
2022-11-25T15:06:44.474Z,76.20
2022-11-25T15:09:23.937Z,79.10
2022-11-25T15:12:00.133Z,78.90
2022-11-25T15:14:35.791Z,74.00
2022-11-25T15:17:19.097Z,77.50
2022-11-25T15:19:54.850Z,78.60
2022-11-25T15:22:27.041Z,75.90
2022-11-25T15:25:11.506Z,85.60
2022-11-25T15:27:49.571Z,85.10
2022-11-25T15:30:25.162Z,75.20
2022-11-25T15:32:58.425Z,76.00
2022-11-25T15:35:30.830Z,75.30
2022-11-25T15:38:17.366Z,74.20
2022-11-25T15:40:59.227Z,67.90
2022-11-25T15:43:32.865Z,76.20
2022-11-25T15:46:06.956Z,79.10
2022-11-25T15:48:45.233Z,77.60
2022-11-25T15:51:34.803Z,77.00
2022-11-25T15:54:16.803Z,74.10
2022-11-25T15:56:52.148Z,82.70
2022-11-25T15:59:47.333Z,96.70
2022-11-25T16:02:52.818Z,82.30
2022-11-25T16:05:38.933Z,101.40
2022-11-25T16:08:32.557Z,81.20
2022-11-25T16:11:18.440Z,83.50
2022-11-25T16:13:52.271Z,85.10
2022-11-25T16:16:27.903Z,86.00
2022-11-25T16:19:18.401Z,88.80
2022-11-25T16:21:55.751Z,89.40
2022-11-25T16:24:41.625Z,85.90
2022-11-25T16:27:25.137Z,116.00
2022-11-25T16:29:59.639Z,110.30
2022-11-25T16:32:34.034Z,116.50
2022-11-25T16:35:16.020Z,117.80
2022-11-25T16:37:49.593Z,109.20
2022-11-25T16:40:22.121Z,122.60
2022-11-25T16:42:54.492Z,124.70
2022-11-25T16:45:28.496Z,117.20
2022-11-25T16:48:01.037Z,129.70
2022-11-25T16:50:33.568Z,113.30
2022-11-25T16:53:05.817Z,132.00
2022-11-25T16:55:38.817Z,158.20
2022-11-25T16:58:17.909Z,166.20
2022-11-25T17:00:52.952Z,149.80
2022-11-25T17:03:26.825Z,151.40
2022-11-25T17:06:00.094Z,148.70
2022-11-25T17:08:33.349Z,158.60
2022-11-25T17:11:05.608Z,169.20
2022-11-25T17:13:43.650Z,172.10
2022-11-25T17:16:18.530Z,179.80
2022-11-25T17:18:56.589Z,235.20
2022-11-25T17:21:29.379Z,294.70
2022-11-25T17:24:07.566Z,299.20
2022-11-25T17:26:43.422Z,289.60
2022-11-25T17:29:19.862Z,281.50
2022-11-25T17:31:57.978Z,291.50
2022-11-25T17:34:34.896Z,298.10
2022-11-25T17:37:16.573Z,252.00
2022-11-25T17:39:49.423Z,232.10
2022-11-25T17:42:24.767Z,243.60
2022-11-25T17:44:57.097Z,235.40
2022-11-25T17:47:29.396Z,219.00
2022-11-25T17:50:01.818Z,224.80
2022-11-25T17:52:34.063Z,208.50
2022-11-25T17:55:06.699Z,213.20
2022-11-25T17:57:39.105Z,190.60
2022-11-25T18:00:16.789Z,188.60
2022-11-25T18:02:49.609Z,190.00
2022-11-25T18:05:24.232Z,193.00
2022-11-25T18:07:56.698Z,174.70
2022-11-25T18:10:29.873Z,188.10
2022-11-25T18:13:04.291Z,198.00
2022-11-25T18:15:38.549Z,235.90
2022-11-25T18:18:25.343Z,232.60
2022-11-25T18:20:57.502Z,257.90
2022-11-25T18:23:29.723Z,254.50
2022-11-25T18:26:03.982Z,203.10
2022-11-25T18:28:36.378Z,211.50
2022-11-25T18:31:11.968Z,211.40
2022-11-25T18:33:44.383Z,210.50
2022-11-25T18:36:16.803Z,212.60
2022-11-25T18:38:50.913Z,217.50
2022-11-25T18:41:23.853Z,211.40
2022-11-25T18:44:02.865Z,178.40
2022-11-25T18:46:38.851Z,193.00
2022-11-25T18:49:14.811Z,170.40
2022-11-25T18:51:47.358Z,184.40
2022-11-25T18:54:19.627Z,189.90
2022-11-25T18:56:53.292Z,241.70
2022-11-25T18:59:33.440Z,290.90
2022-11-25T19:02:11.767Z,324.90
2022-11-25T19:04:44.341Z,307.50
2022-11-25T19:07:16.883Z,288.80
2022-11-25T19:09:49.032Z,309.00
2022-11-25T19:12:22.205Z,355.50
2022-11-25T19:14:57.278Z,323.40
2022-11-25T19:17:29.656Z,338.10
2022-11-25T19:20:02.095Z,341.70
2022-11-25T19:22:34.210Z,353.30
2022-11-25T19:25:06.513Z,335.90
2022-11-25T19:27:42.873Z,341.90
2022-11-25T19:30:19.384Z,328.20
2022-11-25T19:32:55.012Z,338.00
2022-11-25T19:35:32.734Z,385.40
2022-11-25T19:38:08.514Z,428.40
2022-11-25T19:40:41.137Z,274.40
2022-11-25T19:43:13.233Z,289.50
2022-11-25T19:45:46.613Z,304.80
2022-11-25T19:48:21.726Z,268.10
2022-11-25T19:50:59.813Z,261.40
2022-11-25T19:53:34.367Z,252.50
2022-11-25T19:56:07.221Z,256.90
2022-11-25T19:58:39.255Z,262.40
2022-11-25T20:01:16.890Z,266.10
2022-11-25T20:03:51.072Z,261.70
2022-11-25T20:06:23.953Z,257.10
2022-11-25T20:08:59.783Z,244.10
2022-11-25T20:11:37.761Z,266.00
2022-11-25T20:14:09.888Z,271.90
2022-11-25T20:16:43.994Z,284.30
2022-11-25T20:19:19.774Z,278.20
2022-11-25T20:21:52.007Z,262.60
2022-11-25T20:24:24.277Z,269.90
2022-11-25T20:26:57.839Z,271.60
2022-11-25T20:29:30.784Z,244.50
2022-11-25T20:32:26.495Z,251.20
2022-11-25T20:34:59.893Z,260.60
2022-11-25T20:37:40.508Z,267.00
2022-11-25T20:40:18.876Z,252.20
2022-11-25T20:42:51.743Z,263.40
2022-11-25T20:45:25.985Z,268.50
2022-11-25T20:47:59.390Z,249.60
2022-11-25T20:50:32.284Z,242.60
2022-11-25T20:53:11.845Z,228.40
2022-11-25T20:55:48.663Z,235.80
2022-11-25T20:58:26.940Z,220.00
2022-11-25T21:01:00.297Z,215.50
2022-11-25T21:03:32.823Z,221.70
2022-11-25T21:06:13.375Z,221.70
2022-11-25T21:11:18.220Z,215.00
2022-11-25T21:13:51.954Z,219.70
2022-11-25T21:16:25.710Z,217.40
2022-11-25T21:19:00.855Z,220.40
2022-11-25T21:21:35.478Z,217.00
2022-11-25T21:24:18.477Z,206.70
2022-11-25T21:26:50.775Z,197.60
2022-11-25T21:29:23.008Z,186.10
2022-11-25T21:31:55.400Z,191.10
2022-11-25T21:34:27.722Z,189.30
2022-11-25T21:37:01.129Z,180.50
2022-11-25T21:39:35.272Z,176.60
2022-11-25T21:42:15.706Z,165.50
2022-11-25T21:47:22.470Z,145.60
2022-11-25T21:49:57.106Z,147.30
2022-11-25T21:52:30.505Z,149.80
2022-11-25T21:55:02.964Z,150.00
2022-11-25T21:57:35.148Z,161.60
2022-11-25T22:00:18.332Z,157.10
2022-11-25T22:02:54.099Z,161.90
2022-11-25T22:05:26.964Z,154.90
2022-11-25T22:07:59.769Z,150.40
2022-11-25T22:10:32.049Z,156.50
2022-11-25T22:13:06.607Z,144.10
2022-11-25T22:15:38.952Z,139.30
2022-11-25T22:18:19.538Z,137.30
2022-11-25T22:23:26.150Z,143.20
2022-11-25T22:25:59.004Z,141.70
2022-11-25T22:28:32.225Z,138.20
2022-11-25T22:31:08.117Z,141.20
2022-11-25T22:33:40.688Z,131.90
2022-11-25T22:36:30.766Z,136.20
2022-11-25T22:43:20.683Z,133.10
2022-11-25T22:45:53.022Z,124.90
2022-11-25T22:48:32.094Z,116.20
2022-11-25T22:51:04.700Z,125.70
2022-11-25T22:53:36.786Z,126.50
2022-11-25T22:56:17.667Z,129.70
2022-11-25T22:58:49.998Z,120.20
2022-11-25T23:01:27.393Z,120.20
2022-11-25T23:03:59.704Z,119.60
2022-11-25T23:06:32.172Z,136.30
2022-11-25T23:09:07.335Z,142.00
2022-11-25T23:11:41.759Z,135.90
2022-11-25T23:14:14.209Z,128.60
2022-11-25T23:16:46.715Z,123.50
2022-11-25T23:19:20.111Z,128.90
2022-11-25T23:21:55.112Z,126.40
2022-11-25T23:24:28.348Z,137.90
2022-11-25T23:27:00.417Z,137.70
2022-11-25T23:29:33.000Z,138.50
2022-11-25T23:32:07.866Z,147.70
2022-11-25T23:34:40.392Z,148.00
2022-11-25T23:37:17.942Z,140.50
2022-11-25T23:39:52.486Z,139.90
2022-11-25T23:42:26.887Z,144.80
2022-11-25T23:44:59.039Z,146.10
2022-11-25T23:47:31.214Z,146.40
2022-11-25T23:50:03.600Z,163.80
2022-11-25T23:52:36.097Z,151.50
2022-11-25T23:55:13.783Z,140.00
2022-11-25T23:57:48.582Z,144.90
